Time;durP1;ratioP1;P1;durP2;ratioP2;P2;SDS_P1;SDS_P2;PMS_P1;PMS_P2;Temp;Humidity;BMP_temperature;BMP_pressure;BME280_temperature;BME280_humidity;BME280_pressure;Samples;Min_cycle;Max_cycle;Signal;HPM_P1;HPM_P2
2022/08/25 00:01:29;;;;;;;;;;;;;;;;;;5070181;28;20508;-53
2022/08/25 00:03:54;;;;;;;;;;;;;;;;;;5078305;28;19916;-56
2022/08/25 00:06:20;;;;;;;;;;;;;;;;;;5070514;28;19928;-56
2022/08/25 00:08:45;;;;;;;;;;;;;;;;;;5078339;28;19994;-55
2022/08/25 00:11:10;;;;;;;;;;;;;;;;;;5072787;28;19919;-55
2022/08/25 00:13:36;;;;;;;;;;;;;;;;;;5074402;28;19916;-55
2022/08/25 00:16:01;;;;;;;;;;;;;;;;;;5080451;28;19924;-53
2022/08/25 00:18:26;;;;;;;;;;;;;;;;;;5072652;28;19912;-54
2022/08/25 00:20:51;;;;;;;;;;;;;;;;;;5082747;28;19923;-54
2022/08/25 00:23:17;;;;;;;;;;;;;;;;;;5073616;28;19920;-54
2022/08/25 00:25:42;;;;;;;;;;;;;;;;;;5075786;28;19935;-56
2022/08/25 00:28:09;;;;;;;;;;;;;;;;;;5080557;28;19956;-54
2022/08/25 00:30:35;;;;;;;;;;;;;;;;;;5075488;28;19942;-55
2022/08/25 00:33:00;;;;;;;;;;;;;;;;;;5081859;28;19953;-57
2022/08/25 00:35:26;;;;;;;;;;;;;;;;;;5075545;28;20387;-54
2022/08/25 00:37:51;;;;;;;;;;;;;;;;;;5077473;28;19927;-52
2022/08/25 00:40:16;;;;;;;;;;;;;;;;;;5079255;28;19916;-56
2022/08/25 00:42:41;;;;;;;;;;;;;;;;;;5057809;28;19963;-56
2022/08/25 00:45:06;;;;;;;;;;;;;;;;;;5082222;28;19959;-56
2022/08/25 00:47:31;;;;;;;;;;;;;;;;;;5075899;28;19920;-55
2022/08/25 00:49:57;;;;;;;;;;;;;;;;;;5075056;28;19912;-53
2022/08/25 00:52:25;;;;;;;;;;;;;;;;;;5080080;28;19971;-54
2022/08/25 00:54:50;;;;;;;;;;;;;;;;;;5076667;28;19969;-54
2022/08/25 00:57:16;;;;;;;;;;;;;;;;;;5093842;28;19922;-55
2022/08/25 00:59:42;;;;;;;;;;;;;;;;;;5072037;28;19926;-57
2022/08/25 01:02:07;;;;;;;;;;;;;;;;;;5063761;28;19922;-58
2022/08/25 01:04:32;;;;;;;;;;;;;;;;;;5075363;28;20283;-54
2022/08/25 01:06:57;;;;;;;;;;;;;;;;;;5075519;28;19955;-55
2022/08/25 01:09:23;;;;;;;;;;;;;;;;;;5081174;28;20022;-56
2022/08/25 01:11:48;;;;;;;;;;;;;;;;;;5070230;28;19945;-55
2022/08/25 01:14:13;;;;;;;;;;;;;;;;;;5057998;28;19920;-57
2022/08/25 01:16:38;;;;;;;;;;;;;;;;;;5058959;28;20504;-55
2022/08/25 01:19:04;;;;;;;;;;;;;;;;;;5073485;28;19950;-56
2022/08/25 01:21:29;;;;;;;;;;;;;;;;;;5078671;28;20795;-56
2022/08/25 01:23:54;;;;;;;;;;;;;;;;;;5074270;28;19916;-54
2022/08/25 01:26:19;;;;;;;;;;;;;;;;;;5061781;28;19920;-57
2022/08/25 01:31:29;;;;;;;;;;;;;;;;;;5073059;28;20019;-54
2022/08/25 01:33:54;;;;;;;;;;;;;;;;;;5079479;28;19956;-54
2022/08/25 01:36:19;;;;;;;;;;;;;;;;;;5072219;28;20024;-54
2022/08/25 01:38:44;;;;;;;;;;;;;;;;;;5077452;28;20288;-57
2022/08/25 01:41:09;;;;;;;;;;;;;;;;;;5081703;28;19916;-56
2022/08/25 01:43:35;;;;;;;;;;;;;;;;;;5079463;28;19920;-55
2022/08/25 01:46:00;;;;;;;;;;;;;;;;;;5083650;28;20001;-55
2022/08/25 01:48:26;;;;;;;;;;;;;;;;;;5078825;28;20292;-57
2022/08/25 01:50:51;;;;;;;;;;;;;;;;;;5077460;28;20003;-54
2022/08/25 01:53:16;;;;;;;;;;;;;;;;;;5084752;28;19961;-54
2022/08/25 01:55:50;;;;;;;;;;;;;;;;;;5080051;28;19985;-54
2022/08/25 01:58:16;;;;;;;;;;;;;;;;;;5084071;28;20376;-52
2022/08/25 02:00:41;;;;;;;;;;;;;;;;;;5079088;28;19923;-53
2022/08/25 02:03:06;;;;;;;;;;;;;;;;;;5077846;28;19916;-53
2022/08/25 02:05:34;;;;;;;;;;;;;;;;;;5084154;28;19920;-53
2022/08/25 02:08:00;;;;;;;;;;;;;;;;;;5076576;28;19926;-55
2022/08/25 02:10:26;;;;;;;;;;;;;;;;;;5083672;28;20295;-56
2022/08/25 02:12:51;;;;;;;;;;;;;;;;;;5076430;28;20643;-52
2022/08/25 02:15:16;;;;;;;;;;;;;;;;;;5076033;28;19950;-56
2022/08/25 02:17:42;;;;;;;;;;;;;;;;;;5080905;28;20032;-53
2022/08/25 02:20:08;;;;;;;;;;;;;;;;;;5074223;28;19924;-56
2022/08/25 02:22:36;;;;;;;;;;;;;;;;;;5082623;28;19916;-55
2022/08/25 02:25:01;;;;;;;;;;;;;;;;;;5073867;28;19924;-54
2022/08/25 02:27:27;;;;;;;;;;;;;;;;;;5076452;28;19924;-55
2022/08/25 02:29:52;;;;;;;;;;;;;;;;;;5083688;28;19916;-58
2022/08/25 02:32:17;;;;;;;;;;;;;;;;;;5076929;28;19943;-56
2022/08/25 02:34:43;;;;;;;;;;;;;;;;;;5080882;28;19951;-56
2022/08/25 02:37:08;;;;;;;;;;;;;;;;;;5075359;28;19920;-57
2022/08/25 02:39:33;;;;;;;;;;;;;;;;;;5074589;28;19916;-57
2022/08/25 02:41:58;;;;;;;;;;;;;;;;;;5080849;28;20628;-56
2022/08/25 02:44:24;;;;;;;;;;;;;;;;;;5090403;27;20587;-53
2022/08/25 02:46:49;;;;;;;;;;;;;;;;;;5080863;28;19984;-57
2022/08/25 02:49:14;;;;;;;;;;;;;;;;;;5073417;28;19920;-51
2022/08/25 02:51:39;;;;;;;;;;;;;;;;;;5073067;28;19927;-53
2022/08/25 02:54:04;;;;;;;;;;;;;;;;;;5079986;28;19999;-55
2022/08/25 02:56:30;;;;;;;;;;;;;;;;;;5075787;28;19966;-52
2022/08/25 02:58:55;;;;;;;;;;;;;;;;;;5074604;28;20840;-56
2022/08/25 03:01:20;;;;;;;;;;;;;;;;;;5074398;28;19920;-55
2022/08/25 03:03:45;;;;;;;;;;;;;;;;;;5072964;28;19920;-55
2022/08/25 03:06:11;;;;;;;;;;;;;;;;;;5092788;28;19920;-55
2022/08/25 03:08:36;;;;;;;;;;;;;;;;;;5073848;28;19930;-54
2022/08/25 03:11:01;;;;;;;;;;;;;;;;;;5078624;28;19920;-57
2022/08/25 03:13:31;;;;;;;;;;;;;;;;;;5073949;28;19920;-57
2022/08/25 03:15:56;;;;;;;;;;;;;;;;;;5074365;28;20007;-57
2022/08/25 03:18:22;;;;;;;;;;;;;;;;;;5080629;28;20023;-53
2022/08/25 03:20:47;;;;;;;;;;;;;;;;;;5074616;28;19974;-53
2022/08/25 03:23:12;;;;;;;;;;;;;;;;;;5078921;28;19927;-53
2022/08/25 03:28:23;;;;;;;;;;;;;;;;;;5076249;28;19930;-56
2022/08/25 03:30:48;;;;;;;;;;;;;;;;;;5079954;28;19916;-57
2022/08/25 03:33:14;;;;;;;;;;;;;;;;;;5073576;28;19920;-58
2022/08/25 03:35:39;;;;;;;;;;;;;;;;;;5074804;28;19923;-57
2022/08/25 03:38:04;;;;;;;;;;;;;;;;;;5079748;28;19920;-57
2022/08/25 03:40:29;;;;;;;;;;;;;;;;;;5074839;28;19928;-56
2022/08/25 03:42:55;;;;;;;;;;;;;;;;;;5079127;28;19916;-56
2022/08/25 03:45:21;;;;;;;;;;;;;;;;;;5074298;28;19924;-56
2022/08/25 03:47:46;;;;;;;;;;;;;;;;;;5074643;28;19920;-53
2022/08/25 03:50:11;;;;;;;;;;;;;;;;;;5079033;28;19920;-55
2022/08/25 03:52:36;;;;;;;;;;;;;;;;;;5071517;28;19969;-51
2022/08/25 03:55:02;;;;;;;;;;;;;;;;;;5078396;28;19956;-55
2022/08/25 03:57:27;;;;;;;;;;;;;;;;;;5073709;28;20413;-54
2022/08/25 03:59:52;;;;;;;;;;;;;;;;;;5075277;28;19981;-56
2022/08/25 04:02:18;;;;;;;;;;;;;;;;;;5078466;28;20290;-54
2022/08/25 04:04:43;;;;;;;;;;;;;;;;;;5071451;28;20653;-57
2022/08/25 04:07:08;;;;;;;;;;;;;;;;;;5093737;28;19920;-56
2022/08/25 04:09:33;;;;;;;;;;;;;;;;;;5070627;28;20106;-57
2022/08/25 04:11:58;;;;;;;;;;;;;;;;;;5072120;28;21391;-51
2022/08/25 04:14:24;;;;;;;;;;;;;;;;;;5077711;28;20630;-53
2022/08/25 04:16:49;;;;;;;;;;;;;;;;;;5073851;28;19916;-54
2022/08/25 04:19:14;;;;;;;;;;;;;;;;;;5077059;28;19973;-54
2022/08/25 04:21:40;;;;;;;;;;;;;;;;;;5069680;28;19923;-55
2022/08/25 04:24:05;;;;;;;;;;;;;;;;;;5074731;28;19923;-55
2022/08/25 04:26:31;;;;;;;;;;;;;;;;;;5082145;28;20286;-55
2022/08/25 04:28:56;;;;;;;;;;;;;;;;;;5076117;28;20001;-53
2022/08/25 04:31:21;;;;;;;;;;;;;;;;;;5077650;28;20003;-55
2022/08/25 04:33:47;;;;;;;;;;;;;;;;;;5075256;28;19916;-53
2022/08/25 04:36:12;;;;;;;;;;;;;;;;;;5073745;28;19920;-56
2022/08/25 04:38:37;;;;;;;;;;;;;;;;;;5079559;28;20041;-53
2022/08/25 04:41:02;;;;;;;;;;;;;;;;;;5073238;28;19923;-54
2022/08/25 04:43:28;;;;;;;;;;;;;;;;;;5076940;28;19920;-54
2022/08/25 04:45:53;;;;;;;;;;;;;;;;;;5073829;28;20564;-55
2022/08/25 04:48:18;;;;;;;;;;;;;;;;;;5072455;28;20418;-52
2022/08/25 04:50:44;;;;;;;;;;;;;;;;;;5079739;28;19916;-51
2022/08/25 04:53:09;;;;;;;;;;;;;;;;;;5072799;28;19959;-57
2022/08/25 04:55:34;;;;;;;;;;;;;;;;;;5078179;28;19999;-55
2022/08/25 04:57:59;;;;;;;;;;;;;;;;;;5073309;28;19923;-55
2022/08/25 05:00:24;;;;;;;;;;;;;;;;;;5072040;28;19916;-55
2022/08/25 05:02:50;;;;;;;;;;;;;;;;;;5080926;28;19942;-54
2022/08/25 05:05:15;;;;;;;;;;;;;;;;;;5069990;28;20655;-54
2022/08/25 05:07:41;;;;;;;;;;;;;;;;;;5076883;28;20007;-56
2022/08/25 05:10:06;;;;;;;;;;;;;;;;;;5073119;28;19920;-53
2022/08/25 05:12:32;;;;;;;;;;;;;;;;;;5065945;28;19920;-55
2022/08/25 05:15:48;;;;;;;;;;;;;;;;;;5080845;28;20510;-56
2022/08/25 05:17:42;;;;;;;;;;;;;;;;;;5076730;28;20740;-53
2022/08/25 05:20:07;;;;;;;;;;;;;;;;;;5082240;28;19916;-55
2022/08/25 05:22:32;;;;;;;;;;;;;;;;;;5074805;28;20014;-54
2022/08/25 05:24:58;;;;;;;;;;;;;;;;;;5078340;28;19916;-54
2022/08/25 05:27:23;;;;;;;;;;;;;;;;;;5083686;28;19924;-55
2022/08/25 05:29:49;;;;;;;;;;;;;;;;;;5077256;28;19912;-55
2022/08/25 05:32:14;;;;;;;;;;;;;;;;;;5098468;27;20559;-55
2022/08/25 05:34:39;;;;;;;;;;;;;;;;;;5074077;28;20379;-56
2022/08/25 05:37:04;;;;;;;;;;;;;;;;;;5073452;28;20007;-54
2022/08/25 05:39:32;;;;;;;;;;;;;;;;;;5096165;27;19916;-52
2022/08/25 05:41:57;;;;;;;;;;;;;;;;;;5079003;28;19920;-55
2022/08/25 05:44:22;;;;;;;;;;;;;;;;;;5082764;28;19984;-57
2022/08/25 05:46:47;;;;;;;;;;;;;;;;;;5079042;28;20433;-53
2022/08/25 05:49:12;;;;;;;;;;;;;;;;;;5083204;28;20021;-52
2022/08/25 05:51:38;;;;;;;;;;;;;;;;;;5088639;28;19940;-51
2022/08/25 05:54:03;;;;;;;;;;;;;;;;;;5085055;28;19916;-53
2022/08/25 05:56:28;;;;;;;;;;;;;;;;;;5086259;28;20364;-55
2022/08/25 05:58:53;;;;;;;;;;;;;;;;;;5065819;28;19924;-57
2022/08/25 06:04:03;;;;;;;;;;;;;;;;;;5086592;28;20356;-55
2022/08/25 06:06:31;;;;;;;;;;;;;;;;;;5087774;28;19920;-56
2022/08/25 06:08:57;;;;;;;;;;;;;;;;;;5088766;28;19940;-53
2022/08/25 06:11:22;;;;;;;;;;;;;;;;;;5084871;28;19927;-57
2022/08/25 06:13:48;;;;;;;;;;;;;;;;;;5084107;28;19961;-54
2022/08/25 06:16:14;;;;;;;;;;;;;;;;;;5085442;28;19916;-53
2022/08/25 06:18:39;;;;;;;;;;;;;;;;;;5084697;28;20261;-53
2022/08/25 06:21:04;;;;;;;;;;;;;;;;;;5084988;28;20369;-55
2022/08/25 06:23:29;;;;;;;;;;;;;;;;;;5084922;28;19916;-56
2022/08/25 06:25:55;;;;;;;;;;;;;;;;;;5083401;28;19916;-57
2022/08/25 06:28:20;;;;;;;;;;;;;;;;;;5084378;28;19970;-56
2022/08/25 06:30:45;;;;;;;;;;;;;;;;;;5084626;28;19916;-56
2022/08/25 06:33:11;;;;;;;;;;;;;;;;;;5084592;28;19989;-56
2022/08/25 06:35:36;;;;;;;;;;;;;;;;;;5083081;28;19920;-55
2022/08/25 06:38:02;;;;;;;;;;;;;;;;;;5083350;28;19927;-57
2022/08/25 06:40:27;;;;;;;;;;;;;;;;;;5082921;28;19950;-57
2022/08/25 06:42:53;;;;;;;;;;;;;;;;;;5081371;28;19947;-54
2022/08/25 06:45:18;;;;;;;;;;;;;;;;;;5081254;28;19931;-57
2022/08/25 06:47:43;;;;;;;;;;;;;;;;;;5084282;28;19969;-58
2022/08/25 06:50:08;;;;;;;;;;;;;;;;;;5082152;28;20457;-57
2022/08/25 06:52:34;;;;;;;;;;;;;;;;;;5081608;28;19920;-56
2022/08/25 06:55:00;;;;;;;;;;;;;;;;;;5082523;28;19920;-57
2022/08/25 06:57:25;;;;;;;;;;;;;;;;;;5081884;28;19916;-54
2022/08/25 06:59:50;;;;;;;;;;;;;;;;;;5080984;28;19920;-57
2022/08/25 07:02:15;;;;;;;;;;;;;;;;;;5081725;28;19938;-57
2022/08/25 07:04:40;;;;;;;;;;;;;;;;;;5082049;28;19915;-53
2022/08/25 07:07:06;;;;;;;;;;;;;;;;;;5082480;28;19969;-58
2022/08/25 07:09:31;;;;;;;;;;;;;;;;;;5082345;28;20789;-58
2022/08/25 07:11:56;;;;;;;;;;;;;;;;;;5082267;28;20382;-58
2022/08/25 07:14:21;;;;;;;;;;;;;;;;;;5082538;28;20515;-59
2022/08/25 07:16:47;;;;;;;;;;;;;;;;;;5081666;28;19923;-53
2022/08/25 07:19:12;;;;;;;;;;;;;;;;;;5082020;28;19951;-56
2022/08/25 07:21:37;;;;;;;;;;;;;;;;;;5080887;28;19916;-55
2022/08/25 07:24:02;;;;;;;;;;;;;;;;;;5081507;28;19953;-55
2022/08/25 07:26:28;;;;;;;;;;;;;;;;;;5082326;28;19942;-55
2022/08/25 07:28:53;;;;;;;;;;;;;;;;;;5097405;28;20588;-53
2022/08/25 07:31:18;;;;;;;;;;;;;;;;;;5081211;28;19941;-58
2022/08/25 07:36:30;;;;;;;;;;;;;;;;;;5038534;28;19916;-55
2022/08/25 07:38:55;;;;;;;;;;;;;;;;;;5081591;28;19916;-56
2022/08/25 07:41:20;;;;;;;;;;;;;;;;;;5081329;28;19923;-56
2022/08/25 07:43:46;;;;;;;;;;;;;;;;;;5096816;28;20011;-53
2022/08/25 07:46:11;;;;;;;;;;;;;;;;;;5080073;28;20627;-57
2022/08/25 07:48:36;;;;;;;;;;;;;;;;;;5082029;28;19927;-55
2022/08/25 07:51:01;;;;;;;;;;;;;;;;;;5081313;28;20039;-55
2022/08/25 07:53:27;;;;;;;;;;;;;;;;;;5086623;28;19933;-54
2022/08/25 07:55:52;;;;;;;;;;;;;;;;;;5080390;28;19916;-55
2022/08/25 07:58:17;;;;;;;;;;;;;;;;;;5080459;28;19912;-52
2022/08/25 08:00:42;;;;;;;;;;;;;;;;;;5081518;28;19920;-55
2022/08/25 08:03:07;;;;;;;;;;;;;;;;;;5083542;28;19923;-54
2022/08/25 08:05:33;;;;;;;;;;;;;;;;;;5084672;28;19924;-56
2022/08/25 08:07:58;;;;;;;;;;;;;;;;;;5083257;28;19920;-55
2022/08/25 08:10:24;;;;;;;;;;;;;;;;;;5084127;28;19969;-54
2022/08/25 08:12:49;;;;;;;;;;;;;;;;;;5080409;28;19956;-55
2022/08/25 08:15:16;;;;;;;;;;;;;;;;;;5080619;28;20276;-56
2022/08/25 08:17:41;;;;;;;;;;;;;;;;;;5079990;28;19926;-56
2022/08/25 08:20:10;;;;;;;;;;;;;;;;;;5080917;28;19947;-53
2022/08/25 08:22:35;;;;;;;;;;;;;;;;;;5080198;28;20028;-57
2022/08/25 08:25:00;;;;;;;;;;;;;;;;;;5080829;28;19922;-56
2022/08/25 08:27:25;;;;;;;;;;;;;;;;;;5079773;28;20290;-57
2022/08/25 08:29:52;;;;;;;;;;;;;;;;;;5081315;28;19949;-57
2022/08/25 08:32:17;;;;;;;;;;;;;;;;;;5080582;28;19924;-59
2022/08/25 08:34:42;;;;;;;;;;;;;;;;;;5080986;28;19916;-56
2022/08/25 08:37:07;;;;;;;;;;;;;;;;;;5095671;28;19916;-58
2022/08/25 08:39:33;;;;;;;;;;;;;;;;;;5080315;28;19942;-58
2022/08/25 08:42:16;;;;;;;;;;;;;;;;;;5081661;28;19916;-57
2022/08/25 08:44:42;;;;;;;;;;;;;;;;;;5080151;28;19916;-56
2022/08/25 08:47:09;;;;;;;;;;;;;;;;;;5080587;28;19920;-55
2022/08/25 08:49:34;;;;;;;;;;;;;;;;;;5081711;28;19920;-57
2022/08/25 08:51:59;;;;;;;;;;;;;;;;;;5084626;28;19916;-56
2022/08/25 08:54:24;;;;;;;;;;;;;;;;;;5084708;28;19916;-58
2022/08/25 08:56:50;;;;;;;;;;;;;;;;;;5084981;28;19963;-59
2022/08/25 08:59:17;;;;;;;;;;;;;;;;;;5084648;28;19920;-57
2022/08/25 09:01:42;;;;;;;;;;;;;;;;;;5072291;28;20017;-59
2022/08/25 09:04:07;;;;;;;;;;;;;;;;;;5084127;28;20330;-54
2022/08/25 09:06:32;;;;;;;;;;;;;;;;;;5083980;28;20281;-59
2022/08/25 09:08:58;;;;;;;;;;;;;;;;;;5084503;28;19920;-57
2022/08/25 09:11:23;;;;;;;;;;;;;;;;;;5083778;28;20380;-58
2022/08/25 09:13:48;;;;;;;;;;;;;;;;;;5083366;28;20232;-58
2022/08/25 09:18:57;;;;;;;;;;;;;;;;;;5082494;28;19916;-56
2022/08/25 09:21:23;;;;;;;;;;;;;;;;;;5084172;28;19916;-58
2022/08/25 09:23:48;;;;;;;;;;;;;;;;;;5084143;28;19916;-58
2022/08/25 09:26:13;;;;;;;;;;;;;;;;;;5083942;28;19920;-59
2022/08/25 09:28:38;;;;;;;;;;;;;;;;;;5084767;28;19924;-58
2022/08/25 09:31:06;;;;;;;;;;;;;;;;;;5083430;28;19922;-58
2022/08/25 09:33:31;;;;;;;;;;;;;;;;;;5071014;28;20354;-58
2022/08/25 09:35:56;;;;;;;;;;;;;;;;;;5083187;28;20356;-59
2022/08/25 09:38:22;;;;;;;;;;;;;;;;;;5083843;28;19923;-58
2022/08/25 09:40:47;;;;;;;;;;;;;;;;;;5083275;28;19977;-58
2022/08/25 09:43:12;;;;;;;;;;;;;;;;;;5084450;28;19998;-58
2022/08/25 09:45:37;;;;;;;;;;;;;;;;;;5083496;28;19916;-57
2022/08/25 09:48:02;;;;;;;;;;;;;;;;;;5083817;28;20312;-59
2022/08/25 09:50:28;;;;;;;;;;;;;;;;;;5065004;28;19990;-57
2022/08/25 09:52:53;;;;;;;;;;;;;;;;;;5084347;28;20291;-58
2022/08/25 09:55:18;;;;;;;;;;;;;;;;;;5083313;28;20944;-57
2022/08/25 09:57:43;;;;;;;;;;;;;;;;;;5083531;28;19923;-57
2022/08/25 10:00:08;;;;;;;;;;;;;;;;;;5082749;28;19920;-57
2022/08/25 10:02:34;;;;;;;;;;;;;;;;;;5077711;28;19923;-57
2022/08/25 10:04:59;;;;;;;;;;;;;;;;;;5097697;28;19942;-57
2022/08/25 10:07:24;;;;;;;;;;;;;;;;;;5081196;28;20417;-58
2022/08/25 10:09:49;;;;;;;;;;;;;;;;;;5081905;28;19920;-58
2022/08/25 10:12:14;;;;;;;;;;;;;;;;;;5081404;28;19920;-58
2022/08/25 10:14:40;;;;;;;;;;;;;;;;;;5082184;28;19917;-58
2022/08/25 10:17:05;;;;;;;;;;;;;;;;;;5082457;28;19912;-57
2022/08/25 10:19:30;;;;;;;;;;;;;;;;;;5083017;28;20726;-57
2022/08/25 10:21:55;;;;;;;;;;;;;;;;;;5083425;28;19916;-56
2022/08/25 10:24:20;;;;;;;;;;;;;;;;;;5068191;28;19916;-57
2022/08/25 10:26:46;;;;;;;;;;;;;;;;;;5085348;28;19966;-57
2022/08/25 10:29:12;;;;;;;;;;;;;;;;;;5083088;28;19920;-58
2022/08/25 10:31:37;;;;;;;;;;;;;;;;;;5078531;28;19916;-59
2022/08/25 10:34:02;;;;;;;;;;;;;;;;;;5083111;28;19920;-58
2022/08/25 10:36:27;;;;;;;;;;;;;;;;;;5082625;28;20104;-57
2022/08/25 10:38:52;;;;;;;;;;;;;;;;;;5083881;28;19916;-57
2022/08/25 10:41:18;;;;;;;;;;;;;;;;;;5084842;28;20493;-57
2022/08/25 10:43:43;;;;;;;;;;;;;;;;;;5085575;28;19945;-55
2022/08/25 10:46:08;;;;;;;;;;;;;;;;;;5084895;28;20168;-57
2022/08/25 10:48:34;;;;;;;;;;;;;;;;;;5085003;28;20000;-57
2022/08/25 10:50:59;;;;;;;;;;;;;;;;;;5085713;28;19920;-57
2022/08/25 10:53:25;;;;;;;;;;;;;;;;;;5085233;28;19916;-57
2022/08/25 10:55:51;;;;;;;;;;;;;;;;;;5100820;28;20047;-57
2022/08/25 10:58:16;;;;;;;;;;;;;;;;;;5084955;28;19916;-57
2022/08/25 11:00:42;;;;;;;;;;;;;;;;;;5083873;28;19916;-57
2022/08/25 11:03:07;;;;;;;;;;;;;;;;;;5084530;28;19916;-58
2022/08/25 11:05:35;;;;;;;;;;;;;;;;;;5085040;28;19920;-58
2022/08/25 11:08:00;;;;;;;;;;;;;;;;;;5084285;28;19988;-57
2022/08/25 11:10:26;;;;;;;;;;;;;;;;;;5084849;28;19923;-58
2022/08/25 11:12:51;;;;;;;;;;;;;;;;;;5083805;28;20303;-58
2022/08/25 11:15:17;;;;;;;;;;;;;;;;;;5084835;28;19957;-58
2022/08/25 11:17:43;;;;;;;;;;;;;;;;;;5085176;28;19918;-59
2022/08/25 11:20:10;;;;;;;;;;;;;;;;;;5084883;28;19916;-59
2022/08/25 11:22:36;;;;;;;;;;;;;;;;;;5084366;28;19926;-58
2022/08/25 11:25:02;;;;;;;;;;;;;;;;;;5084684;28;19912;-59
2022/08/25 11:27:27;;;;;;;;;;;;;;;;;;5083933;28;19924;-59
2022/08/25 11:29:52;;;;;;;;;;;;;;;;;;5084962;28;20237;-58
2022/08/25 11:32:18;;;;;;;;;;;;;;;;;;5084354;28;19997;-56
2022/08/25 11:34:43;;;;;;;;;;;;;;;;;;5099287;28;19922;-57
2022/08/25 11:37:08;;;;;;;;;;;;;;;;;;5084652;28;19916;-57
2022/08/25 11:39:34;;;;;;;;;;;;;;;;;;5083604;28;19916;-57
2022/08/25 11:41:59;;;;;;;;;;;;;;;;;;5084311;28;20735;-57
2022/08/25 11:44:24;;;;;;;;;;;;;;;;;;5083856;28;19938;-57
2022/08/25 11:46:50;;;;;;;;;;;;;;;;;;5084145;28;19939;-59
2022/08/25 11:49:15;;;;;;;;;;;;;;;;;;5083894;28;19942;-58
2022/08/25 11:51:40;;;;;;;;;;;;;;;;;;5084195;28;19988;-58
2022/08/25 11:54:05;;;;;;;;;;;;;;;;;;5083016;28;19941;-59
2022/08/25 11:56:30;;;;;;;;;;;;;;;;;;5085038;28;19916;-58
2022/08/25 11:58:56;;;;;;;;;;;;;;;;;;5082567;28;19947;-59
2022/08/25 12:01:21;;;;;;;;;;;;;;;;;;5084571;28;19923;-59
2022/08/25 12:03:46;;;;;;;;;;;;;;;;;;5065216;28;19913;-58
2022/08/25 12:06:11;;;;;;;;;;;;;;;;;;5083637;28;19934;-58
2022/08/25 12:11:02;;;;;;;;;;;;;;;;;;5080269;28;19922;-59
2022/08/25 12:13:27;;;;;;;;;;;;;;;;;;5080808;28;20251;-60
2022/08/25 12:15:52;;;;;;;;;;;;;;;;;;5080216;28;19951;-59
2022/08/25 12:18:20;;;;;;;;;;;;;;;;;;5080398;28;19924;-59
2022/08/25 12:20:46;;;;;;;;;;;;;;;;;;5080612;28;19912;-59
2022/08/25 12:23:11;;;;;;;;;;;;;;;;;;5081726;28;19916;-59
2022/08/25 12:25:37;;;;;;;;;;;;;;;;;;5080491;28;19988;-59
2022/08/25 12:28:05;;;;;;;;;;;;;;;;;;5080901;28;19982;-59
2022/08/25 12:30:31;;;;;;;;;;;;;;;;;;5081423;28;19927;-60
2022/08/25 12:32:56;;;;;;;;;;;;;;;;;;5083287;28;20421;-60
2022/08/25 12:35:21;;;;;;;;;;;;;;;;;;5082415;28;19957;-59
2022/08/25 12:37:46;;;;;;;;;;;;;;;;;;5083472;28;19923;-60
2022/08/25 12:40:12;;;;;;;;;;;;;;;;;;5082764;28;19916;-59
2022/08/25 12:42:37;;;;;;;;;;;;;;;;;;5081607;28;20006;-60
2022/08/25 12:45:02;;;;;;;;;;;;;;;;;;5082712;28;20036;-57
2022/08/25 12:47:30;;;;;;;;;;;;;;;;;;5083942;28;19963;-58
2022/08/25 12:49:55;;;;;;;;;;;;;;;;;;5081744;28;19923;-57
2022/08/25 12:52:20;;;;;;;;;;;;;;;;;;5082764;28;19998;-58
2022/08/25 12:54:46;;;;;;;;;;;;;;;;;;5083048;28;19970;-58
2022/08/25 12:57:11;;;;;;;;;;;;;;;;;;5082396;28;19912;-58
2022/08/25 12:59:36;;;;;;;;;;;;;;;;;;5083024;28;20074;-57
2022/08/25 13:02:01;;;;;;;;;;;;;;;;;;5082994;28;20307;-57
2022/08/25 13:04:27;;;;;;;;;;;;;;;;;;5081120;28;20028;-58
2022/08/25 13:06:52;;;;;;;;;;;;;;;;;;5082924;28;19966;-58
2022/08/25 13:09:17;;;;;;;;;;;;;;;;;;5081772;28;19924;-58
2022/08/25 13:11:44;;;;;;;;;;;;;;;;;;5083352;28;19919;-58
2022/08/25 13:14:09;;;;;;;;;;;;;;;;;;5082858;28;19919;-58
2022/08/25 13:16:34;;;;;;;;;;;;;;;;;;5082067;28;20134;-57
2022/08/25 13:19:00;;;;;;;;;;;;;;;;;;5082642;28;19941;-57
2022/08/25 13:21:25;;;;;;;;;;;;;;;;;;5081584;28;19912;-57
2022/08/25 13:23:50;;;;;;;;;;;;;;;;;;5082812;28;20368;-58
2022/08/25 13:26:16;;;;;;;;;;;;;;;;;;5082953;28;19964;-58
2022/08/25 13:28:41;;;;;;;;;;;;;;;;;;5082511;28;19927;-58
2022/08/25 13:31:06;;;;;;;;;;;;;;;;;;5083002;28;20356;-59
2022/08/25 13:33:32;;;;;;;;;;;;;;;;;;5080906;28;20291;-57
2022/08/25 13:38:41;;;;;;;;;;;;;;;;;;5086096;28;19924;-58
2022/08/25 13:41:06;;;;;;;;;;;;;;;;;;5085910;28;19920;-58
2022/08/25 13:43:31;;;;;;;;;;;;;;;;;;5070903;28;19922;-59
2022/08/25 13:45:57;;;;;;;;;;;;;;;;;;5084963;28;19974;-58
2022/08/25 13:48:22;;;;;;;;;;;;;;;;;;5086308;28;20299;-59
2022/08/25 13:50:47;;;;;;;;;;;;;;;;;;5084828;28;19916;-58
2022/08/25 13:53:13;;;;;;;;;;;;;;;;;;5084409;28;19916;-58
2022/08/25 13:55:38;;;;;;;;;;;;;;;;;;5080867;28;20357;-57
2022/08/25 13:58:03;;;;;;;;;;;;;;;;;;5075733;28;19920;-59
2022/08/25 14:00:28;;;;;;;;;;;;;;;;;;5081014;28;20088;-59
2022/08/25 14:02:54;;;;;;;;;;;;;;;;;;5082356;28;19993;-58
2022/08/25 14:05:22;;;;;;;;;;;;;;;;;;5085936;28;19920;-58
2022/08/25 14:07:47;;;;;;;;;;;;;;;;;;5085793;28;19927;-59
2022/08/25 14:10:12;;;;;;;;;;;;;;;;;;5083327;28;19916;-58
2022/08/25 14:12:38;;;;;;;;;;;;;;;;;;5080982;28;19924;-58
2022/08/25 14:15:03;;;;;;;;;;;;;;;;;;5082022;28;19951;-58
2022/08/25 14:17:28;;;;;;;;;;;;;;;;;;5094622;27;20210;-58
2022/08/25 14:19:54;;;;;;;;;;;;;;;;;;5082925;28;20436;-59
2022/08/25 14:22:19;;;;;;;;;;;;;;;;;;5080521;28;19916;-57
2022/08/25 14:24:44;;;;;;;;;;;;;;;;;;5081849;28;19923;-58
2022/08/25 14:27:09;;;;;;;;;;;;;;;;;;5078659;28;19924;-57
2022/08/25 14:29:35;;;;;;;;;;;;;;;;;;5085223;28;19996;-57
2022/08/25 14:32:00;;;;;;;;;;;;;;;;;;5084276;28;20011;-57
2022/08/25 14:34:25;;;;;;;;;;;;;;;;;;5084748;28;19912;-58
2022/08/25 14:36:50;;;;;;;;;;;;;;;;;;5085171;28;19916;-58
2022/08/25 14:39:16;;;;;;;;;;;;;;;;;;5085270;28;20329;-58
2022/08/25 14:41:41;;;;;;;;;;;;;;;;;;5085481;28;19924;-58
2022/08/25 14:44:06;;;;;;;;;;;;;;;;;;5084184;28;19969;-58
2022/08/25 14:46:35;;;;;;;;;;;;;;;;;;5084849;28;19931;-58
2022/08/25 14:49:00;;;;;;;;;;;;;;;;;;5084296;28;19920;-58
2022/08/25 14:51:25;;;;;;;;;;;;;;;;;;5081506;28;19923;-58
2022/08/25 14:53:51;;;;;;;;;;;;;;;;;;5100200;27;19920;-58
2022/08/25 14:56:16;;;;;;;;;;;;;;;;;;5080685;28;19912;-58
2022/08/25 14:58:43;;;;;;;;;;;;;;;;;;5083284;28;19916;-58
2022/08/25 15:01:08;;;;;;;;;;;;;;;;;;5084293;28;19916;-59
2022/08/25 15:03:33;;;;;;;;;;;;;;;;;;5084854;28;19926;-58
2022/08/25 15:05:58;;;;;;;;;;;;;;;;;;5084668;28;19920;-58
2022/08/25 15:11:08;;;;;;;;;;;;;;;;;;5084013;28;19920;-58
2022/08/25 15:13:34;;;;;;;;;;;;;;;;;;5084116;28;20261;-58
2022/08/25 15:15:59;;;;;;;;;;;;;;;;;;5084797;28;19916;-58
2022/08/25 15:18:25;;;;;;;;;;;;;;;;;;5084475;28;19916;-59
2022/08/25 15:20:50;;;;;;;;;;;;;;;;;;5084137;28;19920;-58
2022/08/25 15:23:15;;;;;;;;;;;;;;;;;;5094607;28;20620;-59
2022/08/25 15:25:40;;;;;;;;;;;;;;;;;;5083431;28;19920;-59
2022/08/25 15:28:06;;;;;;;;;;;;;;;;;;5084319;28;19927;-58
2022/08/25 15:30:31;;;;;;;;;;;;;;;;;;5083887;28;19920;-59
2022/08/25 15:32:57;;;;;;;;;;;;;;;;;;5084569;28;19923;-58
2022/08/25 15:35:22;;;;;;;;;;;;;;;;;;5082812;28;19916;-58
2022/08/25 15:37:48;;;;;;;;;;;;;;;;;;5083461;28;20559;-58
2022/08/25 15:40:13;;;;;;;;;;;;;;;;;;5084410;28;19939;-58
2022/08/25 15:42:38;;;;;;;;;;;;;;;;;;5083602;28;19916;-58
2022/08/25 15:45:03;;;;;;;;;;;;;;;;;;5083840;28;19916;-58
2022/08/25 15:47:31;;;;;;;;;;;;;;;;;;5084516;28;19978;-59
2022/08/25 15:49:56;;;;;;;;;;;;;;;;;;5083241;28;20328;-59
2022/08/25 15:52:21;;;;;;;;;;;;;;;;;;5083878;28;19916;-59
2022/08/25 15:54:46;;;;;;;;;;;;;;;;;;5083732;28;19951;-59
2022/08/25 15:57:11;;;;;;;;;;;;;;;;;;5100013;28;19919;-58
2022/08/25 15:59:39;;;;;;;;;;;;;;;;;;5083098;28;19912;-59
2022/08/25 16:02:04;;;;;;;;;;;;;;;;;;5083597;28;20311;-59
2022/08/25 16:04:30;;;;;;;;;;;;;;;;;;5070694;28;19983;-59
2022/08/25 16:06:55;;;;;;;;;;;;;;;;;;5075374;28;19927;-58
2022/08/25 16:09:20;;;;;;;;;;;;;;;;;;5084873;28;19927;-58
2022/08/25 16:11:45;;;;;;;;;;;;;;;;;;5083614;28;20366;-59
2022/08/25 16:14:11;;;;;;;;;;;;;;;;;;5083182;28;19926;-58
2022/08/25 16:16:36;;;;;;;;;;;;;;;;;;5083611;28;19939;-59
2022/08/25 16:19:01;;;;;;;;;;;;;;;;;;5082148;28;19916;-59
2022/08/25 16:21:26;;;;;;;;;;;;;;;;;;5081733;28;19916;-58
2022/08/25 16:23:55;;;;;;;;;;;;;;;;;;5083788;28;19916;-59
2022/08/25 16:26:20;;;;;;;;;;;;;;;;;;5078391;28;19943;-58
2022/08/25 16:28:45;;;;;;;;;;;;;;;;;;5082865;28;20022;-58
2022/08/25 16:31:11;;;;;;;;;;;;;;;;;;5081848;28;20023;-58
2022/08/25 16:33:36;;;;;;;;;;;;;;;;;;5081349;28;20028;-59
2022/08/25 16:36:01;;;;;;;;;;;;;;;;;;5080369;28;20421;-58
2022/08/25 16:38:26;;;;;;;;;;;;;;;;;;5081355;28;19916;-58
2022/08/25 16:40:51;;;;;;;;;;;;;;;;;;5073615;28;19924;-57
2022/08/25 16:43:17;;;;;;;;;;;;;;;;;;5081327;28;19927;-58
2022/08/25 16:45:43;;;;;;;;;;;;;;;;;;5081136;28;19979;-58
2022/08/25 16:48:08;;;;;;;;;;;;;;;;;;5078640;28;20352;-58
2022/08/25 16:50:36;;;;;;;;;;;;;;;;;;5083216;28;19920;-58
2022/08/25 16:55:45;;;;;;;;;;;;;;;;;;5078733;28;21361;-58
2022/08/25 16:58:10;;;;;;;;;;;;;;;;;;5080465;28;19973;-58